Time;durP1;ratioP1;P1;durP2;ratioP2;P2;SDS_P1;SDS_P2;PMS_P1;PMS_P2;Temp;Humidity;BMP_temperature;BMP_pressure;BME280_temperature;BME280_humidity;BME280_pressure;Samples;Min_cycle;Max_cycle;Signal;HPM_P1;HPM_P2
2023/12/22 00:00:19;;;;;;;;;;;7.50;99.90;;;;;;5100744;27;20015;-77
2023/12/22 00:02:45;;;;;;;;;;;7.50;99.90;;;;;;5104865;27;19934;-77
2023/12/22 00:05:10;;;;;;;;;;;7.50;99.90;;;;;;5124228;27;20330;-78
2023/12/22 00:07:36;;;;;;;;;;;7.50;99.90;;;;;;5104200;27;19927;-76
2023/12/22 00:10:02;;;;;;;;;;;7.40;99.90;;;;;;5074821;27;19926;-77
2023/12/22 00:12:28;;;;;;;;;;;7.40;99.90;;;;;;5106043;27;20355;-78
2023/12/22 00:14:53;;;;;;;;;;;7.40;99.90;;;;;;5092184;27;19927;-77
2023/12/22 00:17:19;;;;;;;;;;;7.40;99.90;;;;;;5086413;27;20049;-77
2023/12/22 00:19:45;;;;;;;;;;;7.40;99.90;;;;;;5102257;27;19938;-77
2023/12/22 00:22:10;;;;;;;;;;;7.50;99.90;;;;;;5109495;27;19923;-77
2023/12/22 00:24:36;;;;;;;;;;;7.40;99.90;;;;;;5089685;27;19927;-77
2023/12/22 00:27:03;;;;;;;;;;;7.40;99.90;;;;;;5089624;27;20455;-77
2023/12/22 00:29:28;;;;;;;;;;;7.40;99.90;;;;;;5104840;27;19938;-78
2023/12/22 00:31:55;;;;;;;;;;;7.40;99.90;;;;;;5103758;27;19924;-77
2023/12/22 00:34:21;;;;;;;;;;;7.40;99.90;;;;;;5090108;27;19930;-77
2023/12/22 00:36:47;;;;;;;;;;;8.40;99.90;;;;;;5102609;27;19926;-76
2023/12/22 00:39:12;;;;;;;;;;;7.50;99.90;;;;;;5104134;27;19934;-76
2023/12/22 00:41:38;;;;;;;;;;;7.50;99.90;;;;;;5108078;27;19927;-77
2023/12/22 00:44:04;;;;;;;;;;;7.50;99.90;;;;;;5102052;27;19966;-77
2023/12/22 00:46:29;;;;;;;;;;;7.50;99.90;;;;;;5101796;27;19927;-76
2023/12/22 00:48:55;;;;;;;;;;;7.40;99.90;;;;;;5095590;27;20359;-78
2023/12/22 00:51:22;;;;;;;;;;;7.40;99.90;;;;;;5081746;27;19934;-78
2023/12/22 00:53:48;;;;;;;;;;;7.40;99.90;;;;;;5103035;27;19960;-77
2023/12/22 00:56:13;;;;;;;;;;;7.30;99.90;;;;;;5094739;27;19927;-77
2023/12/22 00:58:40;;;;;;;;;;;7.30;99.90;;;;;;5099639;27;19987;-76
2023/12/22 01:01:05;;;;;;;;;;;7.30;99.90;;;;;;5110510;27;19930;-76
2023/12/22 01:03:31;;;;;;;;;;;7.20;99.90;;;;;;5104648;27;19924;-76
2023/12/22 01:05:56;;;;;;;;;;;7.20;99.90;;;;;;5101998;27;19930;-77
2023/12/22 01:08:22;;;;;;;;;;;7.20;99.90;;;;;;5081182;27;19934;-77
2023/12/22 01:10:48;;;;;;;;;;;7.10;99.90;;;;;;5102364;27;20011;-76
2023/12/22 01:13:14;;;;;;;;;;;7.40;99.90;;;;;;5090300;27;20074;-77
2023/12/22 01:15:39;;;;;;;;;;;7.10;99.90;;;;;;5101338;27;20305;-76
2023/12/22 01:18:05;;;;;;;;;;;7.10;99.90;;;;;;5094877;27;19931;-77
2023/12/22 01:20:31;;;;;;;;;;;7.20;99.90;;;;;;5087387;27;20125;-76
2023/12/22 01:22:56;;;;;;;;;;;7.20;99.90;;;;;;5104248;27;21045;-76
2023/12/22 01:25:23;;;;;;;;;;;7.20;99.90;;;;;;5098205;27;19935;-76
2023/12/22 01:27:52;;;;;;;;;;;7.20;99.90;;;;;;5103747;27;19931;-76
2023/12/22 01:30:18;;;;;;;;;;;7.30;99.90;;;;;;5108702;27;19930;-75
2023/12/22 01:32:44;;;;;;;;;;;7.30;99.90;;;;;;5105040;27;19932;-76
2023/12/22 01:35:10;;;;;;;;;;;7.40;99.90;;;;;;5089386;27;22096;-76
2023/12/22 01:37:36;;;;;;;;;;;7.40;99.90;;;;;;5103152;27;19950;-76
2023/12/22 01:40:02;;;;;;;;;;;7.40;99.90;;;;;;5104687;27;19926;-76
2023/12/22 01:42:28;;;;;;;;;;;7.30;99.90;;;;;;5104703;27;20479;-77
2023/12/22 01:44:54;;;;;;;;;;;7.20;99.90;;;;;;5097981;27;20012;-77
2023/12/22 01:47:19;;;;;;;;;;;6.80;99.90;;;;;;5093710;27;19927;-78
2023/12/22 01:49:45;;;;;;;;;;;6.50;99.90;;;;;;5091186;27;19930;-78
2023/12/22 01:52:11;;;;;;;;;;;6.30;99.90;;;;;;5089652;27;20400;-78
2023/12/22 01:54:37;;;;;;;;;;;6.10;99.90;;;;;;5108268;27;19927;-77
2023/12/22 01:57:02;;;;;;;;;;;6.10;99.90;;;;;;5101066;27;20000;-77
2023/12/22 01:59:30;;;;;;;;;;;6.10;99.90;;;;;;5110411;27;19927;-77
2023/12/22 02:01:56;;;;;;;;;;;6.10;99.90;;;;;;5084840;27;19927;-77
2023/12/22 02:04:22;;;;;;;;;;;6.20;99.90;;;;;;5100176;27;19931;-77
2023/12/22 02:06:47;;;;;;;;;;;6.20;99.90;;;;;;5094815;27;19931;-77
2023/12/22 02:09:13;;;;;;;;;;;6.40;99.90;;;;;;5094352;27;19946;-77
2023/12/22 02:11:39;;;;;;;;;;;6.40;99.90;;;;;;5088037;27;19931;-78
2023/12/22 02:14:06;;;;;;;;;;;6.60;99.90;;;;;;5100425;27;19927;-77
2023/12/22 02:16:44;;;;;;;;;;;6.60;99.90;;;;;;5099477;27;20018;-77
2023/12/22 02:19:16;;;;;;;;;;;6.40;99.90;;;;;;5108394;27;19935;-77
2023/12/22 02:22:01;;;;;;;;;;;6.20;99.90;;;;;;5098201;27;20022;-76
2023/12/22 02:24:27;;;;;;;;;;;6.10;99.90;;;;;;5104875;27;20062;-77
2023/12/22 02:26:55;;;;;;;;;;;6.00;99.90;;;;;;5091313;27;20321;-77
2023/12/22 02:29:22;;;;;;;;;;;6.00;99.90;;;;;;5096740;27;19927;-77
2023/12/22 02:31:50;;;;;;;;;;;6.00;99.90;;;;;;5071999;27;19924;-77
2023/12/22 02:34:18;;;;;;;;;;;5.90;99.90;;;;;;5093293;27;19927;-76
2023/12/22 02:36:45;;;;;;;;;;;5.90;99.90;;;;;;5078294;27;20030;-77
2023/12/22 02:39:11;;;;;;;;;;;5.90;99.90;;;;;;5114512;27;20438;-77
2023/12/22 02:41:39;;;;;;;;;;;6.00;99.90;;;;;;5094763;27;19935;-77
2023/12/22 02:44:05;;;;;;;;;;;6.00;99.90;;;;;;5083775;27;19927;-77
2023/12/22 02:46:30;;;;;;;;;;;6.10;99.90;;;;;;5079829;27;19992;-77
2023/12/22 02:48:56;;;;;;;;;;;6.10;99.90;;;;;;5098708;27;19954;-77
2023/12/22 02:51:21;;;;;;;;;;;6.10;99.90;;;;;;5113524;27;20010;-78
2023/12/22 02:53:47;;;;;;;;;;;6.10;99.90;;;;;;5092502;27;19931;-78
2023/12/22 02:56:13;;;;;;;;;;;6.20;99.90;;;;;;5093867;27;19938;-78
2023/12/22 02:58:38;;;;;;;;;;;6.20;99.90;;;;;;5083214;27;20341;-78
2023/12/22 03:01:04;;;;;;;;;;;6.20;99.90;;;;;;5096349;27;19931;-78
2023/12/22 03:03:29;;;;;;;;;;;6.30;99.90;;;;;;5082002;27;20012;-78
2023/12/22 03:05:55;;;;;;;;;;;6.40;99.90;;;;;;5086432;27;20014;-77
2023/12/22 03:08:22;;;;;;;;;;;6.50;99.90;;;;;;5084590;27;20813;-77
2023/12/22 03:10:48;;;;;;;;;;;6.60;99.90;;;;;;5095606;27;19973;-78
2023/12/22 03:13:13;;;;;;;;;;;6.60;99.90;;;;;;5092155;27;20672;-77
2023/12/22 03:15:39;;;;;;;;;;;6.60;99.90;;;;;;5097155;27;20023;-78
2023/12/22 03:18:04;;;;;;;;;;;6.60;99.90;;;;;;5085755;27;19931;-77
2023/12/22 03:20:30;;;;;;;;;;;6.70;99.90;;;;;;5083620;27;19980;-76
2023/12/22 03:22:56;;;;;;;;;;;6.70;99.90;;;;;;5103438;27;19934;-77
2023/12/22 03:25:27;;;;;;;;;;;6.80;99.90;;;;;;5088913;27;20036;-77
2023/12/22 03:27:53;;;;;;;;;;;6.70;99.90;;;;;;5098426;27;20010;-77
2023/12/22 03:30:18;;;;;;;;;;;6.80;99.90;;;;;;5097724;27;19935;-77
2023/12/22 03:32:44;;;;;;;;;;;6.70;99.90;;;;;;5070257;27;19938;-77
2023/12/22 03:35:09;;;;;;;;;;;6.80;99.90;;;;;;5096356;27;19931;-77
2023/12/22 03:37:35;;;;;;;;;;;6.80;99.90;;;;;;5089841;27;19931;-77
2023/12/22 03:40:01;;;;;;;;;;;6.80;99.90;;;;;;5084098;27;20276;-78
2023/12/22 03:42:26;;;;;;;;;;;6.80;99.90;;;;;;5102960;27;19931;-78
2023/12/22 03:44:52;;;;;;;;;;;6.80;99.90;;;;;;5097650;27;19934;-78
2023/12/22 03:47:18;;;;;;;;;;;6.80;99.90;;;;;;5100507;27;19928;-77
2023/12/22 03:49:44;;;;;;;;;;;6.80;99.90;;;;;;5099486;27;19931;-78
2023/12/22 03:52:10;;;;;;;;;;;6.90;99.90;;;;;;5099977;27;19927;-77
2023/12/22 03:54:36;;;;;;;;;;;6.90;99.90;;;;;;5088700;27;19979;-78
2023/12/22 03:57:01;;;;;;;;;;;6.90;99.90;;;;;;5071625;27;21063;-78
2023/12/22 03:59:27;;;;;;;;;;;6.90;99.90;;;;;;5102128;27;20210;-78
2023/12/22 04:01:53;;;;;;;;;;;6.90;99.90;;;;;;5093267;27;19939;-77
2023/12/22 04:04:19;;;;;;;;;;;6.90;99.90;;;;;;5088054;27;19931;-78
2023/12/22 04:06:45;;;;;;;;;;;6.90;99.90;;;;;;5084793;27;20300;-78
2023/12/22 04:09:10;;;;;;;;;;;7.00;99.90;;;;;;5080575;27;20004;-78
2023/12/22 04:11:37;;;;;;;;;;;7.00;99.90;;;;;;5111264;27;19936;-78
2023/12/22 04:14:03;;;;;;;;;;;7.00;99.90;;;;;;5081026;27;19938;-78
2023/12/22 04:16:28;;;;;;;;;;;7.00;99.90;;;;;;5085854;27;19927;-79
2023/12/22 04:18:54;;;;;;;;;;;7.00;99.90;;;;;;5102033;27;19923;-78
2023/12/22 04:21:19;;;;;;;;;;;7.10;99.90;;;;;;5087555;27;20298;-77
2023/12/22 04:23:45;;;;;;;;;;;7.10;99.90;;;;;;5096990;27;20087;-78
2023/12/22 04:26:11;;;;;;;;;;;7.10;99.90;;;;;;5088820;27;20439;-78
2023/12/22 04:28:36;;;;;;;;;;;7.20;99.90;;;;;;5098029;27;20293;-77
2023/12/22 04:31:02;;;;;;;;;;;7.20;99.90;;;;;;5095805;27;20665;-77
2023/12/22 04:33:28;;;;;;;;;;;7.20;99.90;;;;;;5088543;27;19934;-77
2023/12/22 04:35:54;;;;;;;;;;;7.20;99.90;;;;;;5096036;27;19927;-77
2023/12/22 04:38:19;;;;;;;;;;;7.20;99.90;;;;;;5102355;27;19923;-77
2023/12/22 04:40:45;;;;;;;;;;;7.20;99.90;;;;;;5085919;27;19923;-77
2023/12/22 04:43:10;;;;;;;;;;;7.20;99.90;;;;;;5101434;27;20428;-76
2023/12/22 04:45:36;;;;;;;;;;;7.20;99.90;;;;;;5082523;27;19949;-77
2023/12/22 04:48:02;;;;;;;;;;;7.20;99.90;;;;;;5105706;27;19927;-77
2023/12/22 04:50:27;;;;;;;;;;;7.20;99.90;;;;;;5085706;27;19923;-78
2023/12/22 04:52:53;;;;;;;;;;;7.20;99.90;;;;;;5066803;27;19931;-77
2023/12/22 04:55:20;;;;;;;;;;;7.20;99.90;;;;;;5095525;27;19927;-77
2023/12/22 04:57:45;;;;;;;;;;;7.20;99.90;;;;;;5119276;27;19949;-77
2023/12/22 05:00:12;;;;;;;;;;;7.20;99.90;;;;;;5098516;27;20898;-77
2023/12/22 05:02:37;;;;;;;;;;;7.30;99.90;;;;;;5086940;27;20934;-77
2023/12/22 05:05:03;;;;;;;;;;;7.30;99.90;;;;;;5100080;27;20557;-77
2023/12/22 05:07:29;;;;;;;;;;;7.20;99.90;;;;;;5097002;27;20013;-77
2023/12/22 05:10:00;;;;;;;;;;;7.20;99.90;;;;;;5099092;27;19939;-77
2023/12/22 05:12:26;;;;;;;;;;;7.30;99.90;;;;;;5097593;27;19938;-77
2023/12/22 05:14:52;;;;;;;;;;;7.30;99.90;;;;;;5115055;27;20331;-77
2023/12/22 05:17:17;;;;;;;;;;;7.30;99.90;;;;;;5099939;27;20010;-77
2023/12/22 05:19:43;;;;;;;;;;;7.30;99.90;;;;;;5097624;27;19938;-77
2023/12/22 05:22:08;;;;;;;;;;;7.30;99.90;;;;;;5072569;27;19938;-77
2023/12/22 05:24:34;;;;;;;;;;;7.30;99.90;;;;;;5066441;27;19927;-77
2023/12/22 05:27:00;;;;;;;;;;;7.30;99.90;;;;;;5099162;27;19938;-77
2023/12/22 05:29:25;;;;;;;;;;;7.30;99.90;;;;;;5100552;27;20430;-77
2023/12/22 05:31:51;;;;;;;;;;;7.30;99.90;;;;;;5084322;27;19938;-76
2023/12/22 05:34:16;;;;;;;;;;;7.30;99.90;;;;;;5084586;27;20176;-76
2023/12/22 05:36:42;;;;;;;;;;;7.30;99.90;;;;;;5094924;27;19923;-78
2023/12/22 05:39:09;;;;;;;;;;;7.30;99.90;;;;;;5099716;27;19927;-78
2023/12/22 05:41:37;;;;;;;;;;;7.30;99.90;;;;;;5097627;27;20304;-77
2023/12/22 05:44:04;;;;;;;;;;;7.30;99.90;;;;;;5096776;27;19975;-78
2023/12/22 05:46:30;;;;;;;;;;;7.30;99.90;;;;;;5100774;27;19931;-77
2023/12/22 05:48:59;;;;;;;;;;;7.30;99.90;;;;;;5094071;27;19979;-77
2023/12/22 05:51:26;;;;;;;;;;;7.30;99.90;;;;;;5099403;27;19939;-77
2023/12/22 05:53:53;;;;;;;;;;;7.40;99.90;;;;;;5095464;27;19929;-77
2023/12/22 05:56:19;;;;;;;;;;;7.30;99.90;;;;;;5094266;27;19928;-77
2023/12/22 05:58:45;;;;;;;;;;;7.40;99.90;;;;;;5115843;27;19931;-77
2023/12/22 06:01:15;;;;;;;;;;;7.40;99.90;;;;;;5097838;27;19980;-77
2023/12/22 06:03:41;;;;;;;;;;;7.40;99.90;;;;;;5097537;27;19937;-77
2023/12/22 06:06:06;;;;;;;;;;;7.40;99.90;;;;;;5100402;27;19931;-77
2023/12/22 06:08:32;;;;;;;;;;;7.40;99.90;;;;;;5103715;27;19934;-77
2023/12/22 06:10:57;;;;;;;;;;;7.40;99.90;;;;;;5092671;27;20278;-77
2023/12/22 06:13:24;;;;;;;;;;;7.40;99.90;;;;;;5091784;27;20021;-77
2023/12/22 06:15:50;;;;;;;;;;;7.40;99.90;;;;;;5098929;27;19931;-77
2023/12/22 06:18:15;;;;;;;;;;;7.40;99.90;;;;;;5098385;27;19958;-77
2023/12/22 06:20:41;;;;;;;;;;;7.40;99.90;;;;;;5106557;27;19928;-77
2023/12/22 06:23:07;;;;;;;;;;;7.40;99.90;;;;;;5074726;27;20289;-77
2023/12/22 06:25:32;;;;;;;;;;;7.40;99.90;;;;;;5103517;27;19938;-77
2023/12/22 06:27:58;;;;;;;;;;;7.40;99.90;;;;;;5102824;27;20038;-77
2023/12/22 06:30:23;;;;;;;;;;;7.40;99.90;;;;;;5078832;27;19923;-77
2023/12/22 06:32:49;;;;;;;;;;;7.40;99.90;;;;;;5103138;27;20542;-77
2023/12/22 06:35:15;;;;;;;;;;;7.40;99.90;;;;;;5094524;27;19998;-76
2023/12/22 06:37:46;;;;;;;;;;;7.40;99.90;;;;;;5102413;27;20214;-76
2023/12/22 06:40:12;;;;;;;;;;;7.40;99.90;;;;;;5086437;27;20353;-77
2023/12/22 06:42:38;;;;;;;;;;;6.10;99.90;;;;;;5102709;27;19932;-77
2023/12/22 06:45:04;;;;;;;;;;;7.40;99.90;;;;;;5100579;27;20269;-77
2023/12/22 06:47:29;;;;;;;;;;;7.40;99.90;;;;;;5104564;27;19923;-77
2023/12/22 06:49:55;;;;;;;;;;;7.40;99.90;;;;;;5082183;27;19926;-77
2023/12/22 06:52:20;;;;;;;;;;;7.40;99.90;;;;;;5102237;27;20556;-78
2023/12/22 06:54:46;;;;;;;;;;;7.40;99.90;;;;;;5095931;27;19933;-77
2023/12/22 06:57:12;;;;;;;;;;;7.40;99.90;;;;;;5106607;27;20067;-77
2023/12/22 06:59:38;;;;;;;;;;;7.40;99.90;;;;;;5105244;27;19950;-76
2023/12/22 07:02:04;;;;;;;;;;;7.40;99.90;;;;;;5094958;27;19930;-77
2023/12/22 07:05:07;;;;;;;;;;;7.40;99.90;;;;;;5073814;27;19931;-77
2023/12/22 07:07:33;;;;;;;;;;;7.40;99.90;;;;;;5097712;27;20053;-77
2023/12/22 07:10:00;;;;;;;;;;;7.30;99.90;;;;;;5104546;27;21761;-78
2023/12/22 07:12:26;;;;;;;;;;;7.40;99.90;;;;;;5106706;27;19934;-76
2023/12/22 07:14:52;;;;;;;;;;;7.30;99.90;;;;;;5085844;27;19934;-77
2023/12/22 07:17:17;;;;;;;;;;;7.30;99.90;;;;;;5102219;27;19973;-77
2023/12/22 07:19:43;;;;;;;;;;;7.30;99.90;;;;;;5101999;27;20520;-77
2023/12/22 07:22:09;;;;;;;;;;;8.50;99.90;;;;;;5095578;27;19969;-77
2023/12/22 07:24:34;;;;;;;;;;;7.30;99.90;;;;;;5090337;27;19926;-77
2023/12/22 07:27:00;;;;;;;;;;;7.20;99.90;;;;;;5101007;27;20274;-76
2023/12/22 07:29:26;;;;;;;;;;;7.20;99.90;;;;;;5096534;27;19931;-77
2023/12/22 07:31:51;;;;;;;;;;;7.10;99.90;;;;;;5084053;27;19935;-76
2023/12/22 07:34:18;;;;;;;;;;;7.10;99.90;;;;;;5104808;27;19928;-76
2023/12/22 07:36:44;;;;;;;;;;;7.00;99.90;;;;;;5104626;27;19931;-77
2023/12/22 07:39:10;;;;;;;;;;;7.00;99.90;;;;;;5105579;27;19932;-77
2023/12/22 07:41:36;;;;;;;;;;;6.90;99.90;;;;;;5117375;27;19934;-76
2023/12/22 07:44:02;;;;;;;;;;;6.90;99.90;;;;;;5097509;27;19931;-76
2023/12/22 07:46:28;;;;;;;;;;;6.90;99.90;;;;;;5103869;27;20019;-76
2023/12/22 07:48:54;;;;;;;;;;;6.90;99.90;;;;;;5115998;27;19931;-77
2023/12/22 07:51:20;;;;;;;;;;;6.90;99.90;;;;;;5108250;27;19965;-77
2023/12/22 07:53:45;;;;;;;;;;;6.90;99.90;;;;;;5103147;27;19939;-77
2023/12/22 07:56:11;;;;;;;;;;;6.80;99.90;;;;;;5088350;27;19923;-76
2023/12/22 07:58:37;;;;;;;;;;;6.80;99.90;;;;;;5103784;27;19932;-76
2023/12/22 08:01:06;;;;;;;;;;;6.80;99.90;;;;;;5090191;27;19938;-76
2023/12/22 08:03:32;;;;;;;;;;;6.80;99.90;;;;;;5093746;27;19931;-76
2023/12/22 08:05:58;;;;;;;;;;;6.80;99.90;;;;;;5106464;27;19923;-75
2023/12/22 08:08:26;;;;;;;;;;;6.80;99.90;;;;;;5109469;27;20438;-75
2023/12/22 08:10:52;;;;;;;;;;;6.80;99.90;;;;;;5098855;27;19927;-75
2023/12/22 08:13:17;;;;;;;;;;;6.80;99.90;;;;;;5097134;27;20318;-75
2023/12/22 08:15:43;;;;;;;;;;;6.80;99.90;;;;;;5084997;27;20027;-75
2023/12/22 08:18:09;;;;;;;;;;;6.80;99.90;;;;;;5088221;27;20431;-75
2023/12/22 08:20:35;;;;;;;;;;;6.70;99.90;;;;;;5092985;27;19931;-75
2023/12/22 08:23:00;;;;;;;;;;;6.70;99.90;;;;;;5104050;27;19934;-75
2023/12/22 08:25:26;;;;;;;;;;;6.80;99.90;;;;;;5102177;27;21271;-75
2023/12/22 08:27:52;;;;;;;;;;;6.80;99.90;;;;;;5102303;27;19933;-75
2023/12/22 08:30:17;;;;;;;;;;;6.80;99.90;;;;;;5097988;27;19971;-75
2023/12/22 08:32:43;;;;;;;;;;;6.80;99.90;;;;;;5091537;27;19923;-76
2023/12/22 08:35:08;;;;;;;;;;;6.80;99.90;;;;;;5078694;27;20837;-78
2023/12/22 08:37:35;;;;;;;;;;;6.90;99.90;;;;;;5101448;27;19928;-75
2023/12/22 08:40:00;;;;;;;;;;;6.90;99.90;;;;;;5102426;27;20620;-76
2023/12/22 08:42:26;;;;;;;;;;;6.90;99.90;;;;;;5122210;27;20370;-77
2023/12/22 08:44:52;;;;;;;;;;;6.90;99.90;;;;;;5099599;27;19927;-77
2023/12/22 08:47:18;;;;;;;;;;;6.90;99.90;;;;;;5085872;27;19934;-77
2023/12/22 08:49:43;;;;;;;;;;;6.90;99.90;;;;;;5091361;27;20338;-77
2023/12/22 08:52:09;;;;;;;;;;;6.90;99.90;;;;;;5095601;27;19931;-78
2023/12/22 08:54:37;;;;;;;;;;;6.90;99.90;;;;;;5098923;27;19975;-77
2023/12/22 08:57:03;;;;;;;;;;;6.90;99.90;;;;;;5094653;27;19930;-77
2023/12/22 08:59:29;;;;;;;;;;;6.90;99.90;;;;;;5115549;27;19927;-76
2023/12/22 09:01:55;;;;;;;;;;;6.90;99.90;;;;;;5099319;27;19992;-74
2023/12/22 09:04:22;;;;;;;;;;;7.00;99.90;;;;;;5116331;27;19934;-75
2023/12/22 09:06:51;;;;;;;;;;;6.90;99.90;;;;;;5085684;27;19939;-75
2023/12/22 09:09:17;;;;;;;;;;;7.00;99.90;;;;;;5086511;27;19923;-76
2023/12/22 09:11:43;;;;;;;;;;;7.00;99.90;;;;;;5082496;27;20758;-75
2023/12/22 09:14:09;;;;;;;;;;;7.00;99.90;;;;;;5101048;27;19958;-74
2023/12/22 09:16:35;;;;;;;;;;;7.00;99.90;;;;;;5096762;27;19938;-76
2023/12/22 09:19:01;;;;;;;;;;;7.00;99.90;;;;;;5096034;27;20058;-76
2023/12/22 09:21:27;;;;;;;;;;;7.00;99.90;;;;;;5095681;27;20296;-76
2023/12/22 09:23:52;;;;;;;;;;;7.00;99.90;;;;;;5079497;27;20341;-76
2023/12/22 09:26:18;;;;;;;;;;;7.00;99.90;;;;;;5085472;27;19931;-77
2023/12/22 09:28:44;;;;;;;;;;;7.10;99.90;;;;;;5087398;27;20289;-76
2023/12/22 09:31:10;;;;;;;;;;;7.10;99.90;;;;;;5097534;27;20451;-76
2023/12/22 09:33:36;;;;;;;;;;;7.10;99.90;;;;;;5098934;27;19927;-77
2023/12/22 09:36:02;;;;;;;;;;;6.80;99.90;;;;;;5102465;27;20515;-76
2023/12/22 09:38:29;;;;;;;;;;;7.10;99.90;;;;;;5105249;27;19937;-76
2023/12/22 09:40:56;;;;;;;;;;;7.20;99.90;;;;;;5096052;27;19923;-76
2023/12/22 09:43:24;;;;;;;;;;;7.20;99.90;;;;;;5078946;27;20565;-77
2023/12/22 09:45:50;;;;;;;;;;;7.20;99.90;;;;;;5082516;27;19937;-76
2023/12/22 09:48:26;;;;;;;;;;;7.20;99.90;;;;;;5090211;27;19939;-76
2023/12/22 09:50:52;;;;;;;;;;;7.20;99.90;;;;;;5098671;27;20358;-76
2023/12/22 09:53:19;;;;;;;;;;;7.20;99.90;;;;;;5094455;27;19928;-76
2023/12/22 09:55:48;;;;;;;;;;;7.20;99.90;;;;;;5088915;27;20348;-76
2023/12/22 09:58:15;;;;;;;;;;;7.20;99.90;;;;;;5107325;27;19930;-76
2023/12/22 10:00:40;;;;;;;;;;;7.20;99.90;;;;;;5102417;27;19951;-76
2023/12/22 10:03:07;;;;;;;;;;;7.30;99.90;;;;;;5094797;27;19999;-76
2023/12/22 10:05:35;;;;;;;;;;;7.30;99.90;;;;;;5113720;27;19967;-76
2023/12/22 10:08:02;;;;;;;;;;;7.30;99.90;;;;;;5111460;27;19928;-75
2023/12/22 10:10:29;;;;;;;;;;;7.30;99.90;;;;;;5104615;27;19927;-76
2023/12/22 10:12:55;;;;;;;;;;;7.40;99.90;;;;;;5113908;27;19926;-76
2023/12/22 10:15:23;;;;;;;;;;;7.40;99.90;;;;;;5103194;27;20274;-76
2023/12/22 10:17:53;;;;;;;;;;;7.50;99.90;;;;;;5111124;27;20014;-76
2023/12/22 10:20:18;;;;;;;;;;;7.50;99.90;;;;;;5113589;27;20079;-76
2023/12/22 10:22:44;;;;;;;;;;;7.50;99.90;;;;;;5091448;27;20026;-76
2023/12/22 10:25:10;;;;;;;;;;;7.50;99.90;;;;;;5095530;27;19952;-76
2023/12/22 10:27:36;;;;;;;;;;;7.60;99.90;;;;;;5111426;27;19924;-76
2023/12/22 10:30:02;;;;;;;;;;;7.70;99.90;;;;;;5093511;27;19966;-76
2023/12/22 10:32:28;;;;;;;;;;;7.70;99.90;;;;;;5111477;27;20515;-76
2023/12/22 10:34:54;;;;;;;;;;;7.70;99.90;;;;;;5107840;27;19923;-76
2023/12/22 10:37:21;;;;;;;;;;;7.70;99.90;;;;;;5101174;27;19931;-76
2023/12/22 10:39:48;;;;;;;;;;;7.70;99.90;;;;;;5103961;27;19930;-75
2023/12/22 10:42:14;;;;;;;;;;;7.70;99.90;;;;;;5097076;27;19973;-76
2023/12/22 10:44:40;;;;;;;;;;;7.80;99.90;;;;;;5096963;27;19923;-76
2023/12/22 10:47:06;;;;;;;;;;;7.80;99.90;;;;;;5104080;27;19927;-76
2023/12/22 10:49:32;;;;;;;;;;;7.80;99.90;;;;;;5128282;27;21161;-76
2023/12/22 10:51:57;;;;;;;;;;;7.80;99.90;;;;;;5094213;27;19931;-76
2023/12/22 10:54:23;;;;;;;;;;;7.80;99.90;;;;;;5114686;27;20382;-76
2023/12/22 10:56:49;;;;;;;;;;;7.80;99.90;;;;;;5100725;27;19927;-76
2023/12/22 10:59:22;;;;;;;;;;;7.70;99.90;;;;;;5109213;27;19959;-75
2023/12/22 11:01:51;;;;;;;;;;;7.80;99.90;;;;;;5111291;27;20494;-75
2023/12/22 11:04:19;;;;;;;;;;;7.80;99.90;;;;;;5113883;27;19923;-76
2023/12/22 11:06:47;;;;;;;;;;;7.80;99.90;;;;;;5112169;27;19938;-75
2023/12/22 11:09:16;;;;;;;;;;;7.70;99.90;;;;;;5117131;27;19927;-76
2023/12/22 11:11:42;;;;;;;;;;;7.80;99.90;;;;;;5107102;27;19962;-76
2023/12/22 11:14:08;;;;;;;;;;;7.80;99.90;;;;;;5090726;27;19924;-76
2023/12/22 11:16:34;;;;;;;;;;;7.80;99.90;;;;;;5103293;27;19931;-76
2023/12/22 11:19:01;;;;;;;;;;;7.80;99.90;;;;;;5103545;27;19931;-76
2023/12/22 11:21:28;;;;;;;;;;;7.80;99.90;;;;;;5097992;27;19927;-76
2023/12/22 11:23:54;;;;;;;;;;;7.80;99.90;;;;;;5107814;27;19934;-76
2023/12/22 11:26:21;;;;;;;;;;;7.80;99.90;;;;;;5094558;27;19931;-76
2023/12/22 11:28:48;;;;;;;;;;;7.80;99.90;;;;;;5093671;27;19931;-76
2023/12/22 11:31:14;;;;;;;;;;;7.80;99.90;;;;;;5095184;27;20180;-76
2023/12/22 11:33:42;;;;;;;;;;;7.80;99.90;;;;;;5100578;27;19946;-75
2023/12/22 11:36:08;;;;;;;;;;;7.80;99.90;;;;;;5099232;27;20303;-75
2023/12/22 11:38:34;;;;;;;;;;;7.90;99.90;;;;;;5119006;27;19927;-76
2023/12/22 11:41:00;;;;;;;;;;;7.90;99.90;;;;;;5086350;27;19935;-76
2023/12/22 11:43:26;;;;;;;;;;;7.90;99.90;;;;;;5098729;27;19935;-76
2023/12/22 11:45:52;;;;;;;;;;;7.90;99.90;;;;;;5104058;27;19923;-76
2023/12/22 11:48:17;;;;;;;;;;;7.90;99.90;;;;;;5092674;27;20017;-76
2023/12/22 11:50:43;;;;;;;;;;;7.90;99.90;;;;;;5125774;27;20030;-76
2023/12/22 11:53:22;;;;;;;;;;;7.90;99.90;;;;;;5102039;27;20545;-75
2023/12/22 11:56:02;;;;;;;;;;;7.90;99.90;;;;;;5103019;27;19923;-76
2023/12/22 11:58:35;;;;;;;;;;;7.90;99.90;;;;;;5109161;27;19956;-76
2023/12/22 12:01:01;;;;;;;;;;;7.90;99.90;;;;;;5107157;27;19953;-77
2023/12/22 12:03:27;;;;;;;;;;;7.90;99.90;;;;;;5098308;27;20277;-75
2023/12/22 12:06:12;;;;;;;;;;;7.90;99.90;;;;;;5100674;27;20360;-77
2023/12/22 12:08:37;;;;;;;;;;;7.90;99.90;;;;;;5100989;27;19927;-77
2023/12/22 12:11:03;;;;;;;;;;;7.90;99.90;;;;;;5099024;27;20420;-76
2023/12/22 12:13:30;;;;;;;;;;;7.90;99.90;;;;;;5084500;27;19931;-77
2023/12/22 12:15:59;;;;;;;;;;;8.00;99.90;;;;;;5086901;27;19977;-77
2023/12/22 12:18:27;;;;;;;;;;;8.00;99.90;;;;;;5099167;27;20118;-78
2023/12/22 12:20:52;;;;;;;;;;;8.00;99.90;;;;;;5085373;27;19923;-76
2023/12/22 12:23:18;;;;;;;;;;;8.00;99.90;;;;;;5080237;27;19931;-77
2023/12/22 12:25:44;;;;;;;;;;;8.10;99.90;;;;;;5084149;27;20036;-77
2023/12/22 12:28:10;;;;;;;;;;;8.00;99.90;;;;;;5082586;27;20043;-78
2023/12/22 12:30:36;;;;;;;;;;;8.10;99.90;;;;;;5082337;27;19927;-77
2023/12/22 12:33:06;;;;;;;;;;;8.00;99.90;;;;;;5100323;27;20320;-77
2023/12/22 12:35:35;;;;;;;;;;;8.00;99.90;;;;;;5096463;27;19931;-77
2023/12/22 12:38:03;;;;;;;;;;;8.00;99.90;;;;;;5116009;27;19927;-78
2023/12/22 12:40:33;;;;;;;;;;;8.00;99.90;;;;;;5102788;27;21180;-77
2023/12/22 12:43:00;;;;;;;;;;;8.00;99.90;;;;;;5085393;27;20389;-77
2023/12/22 12:45:26;;;;;;;;;;;8.10;99.90;;;;;;5088952;27;20333;-77
2023/12/22 12:47:56;;;;;;;;;;;8.00;99.90;;;;;;5098287;27;19931;-76
2023/12/22 12:50:22;;;;;;;;;;;8.10;99.90;;;;;;5098807;27;19927;-76
2023/12/22 12:52:49;;;;;;;;;;;8.10;99.90;;;;;;5101490;27;19923;-75
2023/12/22 12:55:18;;;;;;;;;;;8.10;99.90;;;;;;5103441;27;19937;-77
2023/12/22 12:57:43;;;;;;;;;;;8.10;99.90;;;;;;5089166;27;20022;-76
2023/12/22 13:00:09;;;;;;;;;;;8.10;99.90;;;;;;5102998;27;19923;-76
2023/12/22 13:02:36;;;;;;;;;;;8.00;99.90;;;;;;5097411;27;19928;-76
2023/12/22 13:05:04;;;;;;;;;;;8.00;99.90;;;;;;5088601;27;19927;-75
2023/12/22 13:07:30;;;;;;;;;;;8.00;99.90;;;;;;5097505;27;20408;-76
2023/12/22 13:09:58;;;;;;;;;;;8.00;99.90;;;;;;5089981;27;19935;-75
2023/12/22 13:12:25;;;;;;;;;;;7.90;99.90;;;;;;5088393;27;19983;-75
2023/12/22 13:14:55;;;;;;;;;;;7.80;99.90;;;;;;5096926;27;20006;-75
2023/12/22 13:17:21;;;;;;;;;;;7.80;99.90;;;;;;5088551;27;20023;-75
2023/12/22 13:19:47;;;;;;;;;;;7.80;99.90;;;;;;5091274;27;19950;-75
2023/12/22 13:22:14;;;;;;;;;;;7.80;99.90;;;;;;5106017;27;19941;-75
2023/12/22 13:24:39;;;;;;;;;;;7.80;99.90;;;;;;5109596;27;19932;-75
2023/12/22 13:27:06;;;;;;;;;;;7.70;99.90;;;;;;5094444;27;20404;-74
2023/12/22 13:29:42;;;;;;;;;;;7.70;99.90;;;;;;5100609;27;19938;-74
2023/12/22 13:32:08;;;;;;;;;;;7.70;99.90;;;;;;5090461;27;19974;-75
2023/12/22 13:34:34;;;;;;;;;;;7.70;99.90;;;;;;5104038;27;19974;-75
2023/12/22 13:37:02;;;;;;;;;;;7.60;99.90;;;;;;5101963;27;19931;-76
2023/12/22 13:39:29;;;;;;;;;;;7.50;99.90;;;;;;5091614;27;19970;-75
2023/12/22 13:41:54;;;;;;;;;;;7.30;99.90;;;;;;5092283;27;19928;-75
2023/12/22 13:44:20;;;;;;;;;;;7.20;99.90;;;;;;5084582;27;19938;-76
2023/12/22 13:46:47;;;;;;;;;;;7.10;99.90;;;;;;5095273;27;19923;-76
2023/12/22 13:49:12;;;;;;;;;;;7.10;99.90;;;;;;5112482;27;19934;-75
2023/12/22 13:51:39;;;;;;;;;;;7.00;99.90;;;;;;5111791;27;21186;-75
2023/12/22 13:54:04;;;;;;;;;;;7.00;99.90;;;;;;5082269;27;19927;-75
2023/12/22 13:56:35;;;;;;;;;;;7.00;99.90;;;;;;5106438;27;19939;-75
2023/12/22 13:59:01;;;;;;;;;;;7.00;99.90;;;;;;5111546;27;19927;-75
2023/12/22 14:01:27;;;;;;;;;;;7.00;99.90;;;;;;5110875;27;19933;-75
2023/12/22 14:03:53;;;;;;;;;;;7.00;99.90;;;;;;5104179;27;19972;-76
2023/12/22 14:06:19;;;;;;;;;;;7.00;99.90;;;;;;5101123;27;20107;-75
2023/12/22 14:08:45;;;;;;;;;;;7.00;99.90;;;;;;5101407;27;20350;-75
2023/12/22 14:11:10;;;;;;;;;;;7.10;99.90;;;;;;5104638;27;20590;-76
2023/12/22 14:13:39;;;;;;;;;;;7.00;99.90;;;;;;5107492;27;20369;-75
2023/12/22 14:16:06;;;;;;;;;;;7.10;99.90;;;;;;5106215;27;19928;-75
2023/12/22 14:18:31;;;;;;;;;;;7.20;99.90;;;;;;5105179;27;19934;-71
2023/12/22 14:20:58;;;;;;;;;;;7.20;99.90;;;;;;5110737;27;19968;-76
2023/12/22 14:23:24;;;;;;;;;;;7.30;99.90;;;;;;5092608;27;20045;-75
2023/12/22 14:25:49;;;;;;;;;;;7.30;99.90;;;;;;5103342;27;19927;-75